sensor_id;sensor_type;location;lat;lon;timestamp;pressure;altitude;pressure_sealevel;temperature;humidity
36502;BME280;25393;46.108;3.390;2022-10-16T00:00:54;97667.06;;;16.56;100.00
36502;BME280;25393;46.108;3.390;2022-10-16T00:03:20;97664.38;;;16.56;100.00
36502;BME280;25393;46.108;3.390;2022-10-16T00:05:53;97679.75;;;16.61;100.00
36502;BME280;25393;46.108;3.390;2022-10-16T00:08:20;97677.09;;;16.54;100.00
36502;BME280;25393;46.108;3.390;2022-10-16T00:10:46;97681.44;;;16.55;100.00
36502;BME280;25393;46.108;3.390;2022-10-16T00:13:13;97656.38;;;16.49;100.00
36502;BME280;25393;46.108;3.390;2022-10-16T00:15:40;97673.00;;;16.58;100.00
36502;BME280;25393;46.108;3.390;2022-10-16T00:18:09;97659.44;;;16.53;100.00
36502;BME280;25393;46.108;3.390;2022-10-16T00:20:36;97676.47;;;16.65;100.00
36502;BME280;25393;46.108;3.390;2022-10-16T00:23:04;97685.31;;;16.66;100.00
36502;BME280;25393;46.108;3.390;2022-10-16T00:25:32;97657.22;;;16.43;100.00
36502;BME280;25393;46.108;3.390;2022-10-16T00:28:00;97702.91;;;16.80;100.00
36502;BME280;25393;46.108;3.390;2022-10-16T00:30:27;97696.78;;;16.73;100.00
36502;BME280;25393;46.108;3.390;2022-10-16T00:32:54;97682.28;;;16.56;100.00
36502;BME280;25393;46.108;3.390;2022-10-16T00:35:21;97691.91;;;16.63;100.00
36502;BME280;25393;46.108;3.390;2022-10-16T00:37:48;97654.97;;;16.40;100.00
36502;BME280;25393;46.108;3.390;2022-10-16T00:40:15;97663.41;;;16.37;100.00
36502;BME280;25393;46.108;3.390;2022-10-16T00:42:42;97692.38;;;16.47;100.00
36502;BME280;25393;46.108;3.390;2022-10-16T00:45:09;97663.94;;;16.21;100.00
36502;BME280;25393;46.108;3.390;2022-10-16T00:47:40;97663.53;;;16.18;100.00
36502;BME280;25393;46.108;3.390;2022-10-16T00:52:39;97705.97;;;16.45;100.00
36502;BME280;25393;46.108;3.390;2022-10-16T00:55:08;97677.81;;;16.36;100.00
36502;BME280;25393;46.108;3.390;2022-10-16T00:57:36;97688.28;;;16.44;100.00
36502;BME280;25393;46.108;3.390;2022-10-16T01:00:06;97696.69;;;16.48;100.00
36502;BME280;25393;46.108;3.390;2022-10-16T01:02:34;97684.53;;;16.52;99.65
36502;BME280;25393;46.108;3.390;2022-10-16T01:05:01;97654.38;;;16.38;100.00
36502;BME280;25393;46.108;3.390;2022-10-16T01:07:55;97697.00;;;16.71;100.00
36502;BME280;25393;46.108;3.390;2022-10-16T01:13:04;97693.94;;;16.68;100.00
36502;BME280;25393;46.108;3.390;2022-10-16T01:20:54;97667.03;;;16.87;91.29
36502;BME280;25393;46.108;3.390;2022-10-16T01:28:24;97660.22;;;16.91;92.22
36502;BME280;25393;46.108;3.390;2022-10-16T01:30:58;97686.28;;;17.27;90.39
36502;BME280;25393;46.108;3.390;2022-10-16T01:33:34;97663.94;;;17.15;90.31
36502;BME280;25393;46.108;3.390;2022-10-16T01:36:14;97695.25;;;17.15;91.68
36502;BME280;25393;46.108;3.390;2022-10-16T01:38:44;97674.59;;;16.97;92.47
36502;BME280;25393;46.108;3.390;2022-10-16T01:41:22;97654.88;;;16.91;92.84
36502;BME280;25393;46.108;3.390;2022-10-16T01:44:12;97644.22;;;16.85;92.69
36502;BME280;25393;46.108;3.390;2022-10-16T01:46:46;97656.84;;;17.03;90.95
36502;BME280;25393;46.108;3.390;2022-10-16T01:49:14;97636.78;;;16.87;90.78
36502;BME280;25393;46.108;3.390;2022-10-16T01:51:43;97633.91;;;16.88;91.14
36502;BME280;25393;46.108;3.390;2022-10-16T01:54:13;97659.41;;;16.91;91.92
36502;BME280;25393;46.108;3.390;2022-10-16T01:56:41;97674.75;;;17.02;91.75
36502;BME280;25393;46.108;3.390;2022-10-16T01:59:12;97672.56;;;16.92;93.01
36502;BME280;25393;46.108;3.390;2022-10-16T02:01:42;97688.28;;;17.07;92.68
36502;BME280;25393;46.108;3.390;2022-10-16T02:04:20;97663.16;;;16.83;93.91
36502;BME280;25393;46.108;3.390;2022-10-16T02:06:49;97690.06;;;16.95;94.36
36502;BME280;25393;46.108;3.390;2022-10-16T02:09:16;97660.97;;;16.74;94.68
36502;BME280;25393;46.108;3.390;2022-10-16T02:11:43;97673.69;;;17.03;91.37
36502;BME280;25393;46.108;3.390;2022-10-16T02:14:10;97684.47;;;17.21;90.50
36502;BME280;25393;46.108;3.390;2022-10-16T02:16:43;97649.19;;;16.81;91.07
36502;BME280;25393;46.108;3.390;2022-10-16T02:19:11;97655.63;;;16.74;91.82
36502;BME280;25393;46.108;3.390;2022-10-16T02:21:43;97681.25;;;16.88;91.81
36502;BME280;25393;46.108;3.390;2022-10-16T02:27:06;97699.84;;;17.32;86.52
36502;BME280;25393;46.108;3.390;2022-10-16T02:29:39;97691.22;;;17.30;86.49
36502;BME280;25393;46.108;3.390;2022-10-16T02:32:08;97693.59;;;17.38;85.58
36502;BME280;25393;46.108;3.390;2022-10-16T02:34:36;97664.13;;;17.20;84.72
36502;BME280;25393;46.108;3.390;2022-10-16T02:37:05;97647.09;;;17.08;85.60
36502;BME280;25393;46.108;3.390;2022-10-16T02:39:33;97672.41;;;17.12;88.70
36502;BME280;25393;46.108;3.390;2022-10-16T02:42:01;97664.53;;;16.92;90.90
36502;BME280;25393;46.108;3.390;2022-10-16T02:44:27;97658.56;;;16.90;89.04
36502;BME280;25393;46.108;3.390;2022-10-16T02:46:54;97645.19;;;16.90;86.03
36502;BME280;25393;46.108;3.390;2022-10-16T02:49:21;97653.50;;;17.07;84.65
36502;BME280;25393;46.108;3.390;2022-10-16T02:51:47;97659.41;;;17.16;83.65
36502;BME280;25393;46.108;3.390;2022-10-16T02:54:14;97644.88;;;17.05;83.28
36502;BME280;25393;46.108;3.390;2022-10-16T02:56:41;97645.69;;;17.06;84.11
36502;BME280;25393;46.108;3.390;2022-10-16T02:59:07;97684.28;;;17.23;83.90
36502;BME280;25393;46.108;3.390;2022-10-16T03:01:34;97651.38;;;16.91;84.75
36502;BME280;25393;46.108;3.390;2022-10-16T03:04:02;97660.31;;;17.03;84.08
36502;BME280;25393;46.108;3.390;2022-10-16T03:06:29;97640.03;;;16.89;84.74
36502;BME280;25393;46.108;3.390;2022-10-16T03:08:55;97640.72;;;16.84;84.44
36502;BME280;25393;46.108;3.390;2022-10-16T03:11:22;97659.34;;;16.97;84.52
36502;BME280;25393;46.108;3.390;2022-10-16T03:13:49;97672.94;;;17.21;82.37
36502;BME280;25393;46.108;3.390;2022-10-16T03:16:15;97701.09;;;17.30;82.19
36502;BME280;25393;46.108;3.390;2022-10-16T03:18:42;97664.31;;;17.19;80.18
36502;BME280;25393;46.108;3.390;2022-10-16T03:21:09;97666.03;;;17.13;80.90
36502;BME280;25393;46.108;3.390;2022-10-16T03:23:35;97687.53;;;17.25;81.44
36502;BME280;25393;46.108;3.390;2022-10-16T03:26:02;97669.69;;;17.19;80.29
36502;BME280;25393;46.108;3.390;2022-10-16T03:28:29;97684.06;;;17.42;78.28
36502;BME280;25393;46.108;3.390;2022-10-16T03:30:55;97666.03;;;17.31;78.06
36502;BME280;25393;46.108;3.390;2022-10-16T03:33:22;97701.16;;;17.48;78.48
36502;BME280;25393;46.108;3.390;2022-10-16T03:35:52;97691.53;;;17.40;79.10
36502;BME280;25393;46.108;3.390;2022-10-16T03:38:20;97676.22;;;17.47;75.97
36502;BME280;25393;46.108;3.390;2022-10-16T03:40:47;97641.06;;;17.37;75.41
36502;BME280;25393;46.108;3.390;2022-10-16T03:43:14;97642.41;;;17.46;75.29
36502;BME280;25393;46.108;3.390;2022-10-16T03:45:41;97682.59;;;17.46;76.91
36502;BME280;25393;46.108;3.390;2022-10-16T03:48:08;97676.00;;;17.24;78.08
36502;BME280;25393;46.108;3.390;2022-10-16T03:50:34;97665.47;;;17.29;77.44
36502;BME280;25393;46.108;3.390;2022-10-16T03:53:01;97691.41;;;17.54;76.53
36502;BME280;25393;46.108;3.390;2022-10-16T03:55:28;97672.91;;;17.45;76.29
36502;BME280;25393;46.108;3.390;2022-10-16T03:57:55;97669.81;;;17.48;75.53
36502;BME280;25393;46.108;3.390;2022-10-16T04:00:21;97664.03;;;17.52;74.61
36502;BME280;25393;46.108;3.390;2022-10-16T04:02:48;97665.00;;;17.57;74.74
36502;BME280;25393;46.108;3.390;2022-10-16T04:05:15;97632.44;;;17.54;73.29
36502;BME280;25393;46.108;3.390;2022-10-16T04:07:41;97650.06;;;17.68;73.73
36502;BME280;25393;46.108;3.390;2022-10-16T04:10:08;97653.19;;;17.65;73.97
36502;BME280;25393;46.108;3.390;2022-10-16T04:12:35;97669.19;;;17.71;74.02
36502;BME280;25393;46.108;3.390;2022-10-16T04:15:02;97662.78;;;17.72;73.71
36502;BME280;25393;46.108;3.390;2022-10-16T04:17:28;97673.75;;;17.89;72.01
36502;BME280;25393;46.108;3.390;2022-10-16T04:19:55;97643.63;;;17.51;72.74
36502;BME280;25393;46.108;3.390;2022-10-16T04:22:21;97667.41;;;17.65;72.52
36502;BME280;25393;46.108;3.390;2022-10-16T04:24:48;97694.59;;;17.87;72.19
36502;BME280;25393;46.108;3.390;2022-10-16T04:27:15;97682.22;;;17.68;73.10
36502;BME280;25393;46.108;3.390;2022-10-16T04:29:41;97688.13;;;17.76;72.23
36502;BME280;25393;46.108;3.390;2022-10-16T04:32:11;97689.44;;;17.85;72.19
36502;BME280;25393;46.108;3.390;2022-10-16T04:34:39;97658.38;;;17.60;72.25
36502;BME280;25393;46.108;3.390;2022-10-16T04:37:06;97658.16;;;17.61;71.65
36502;BME280;25393;46.108;3.390;2022-10-16T04:39:33;97683.59;;;17.52;73.13
36502;BME280;25393;46.108;3.390;2022-10-16T04:41:59;97688.47;;;17.62;73.01
36502;BME280;25393;46.108;3.390;2022-10-16T04:44:26;97676.84;;;17.68;71.76
36502;BME280;25393;46.108;3.390;2022-10-16T04:46:53;97673.66;;;17.77;71.53
36502;BME280;25393;46.108;3.390;2022-10-16T04:49:20;97681.25;;;17.80;71.01
36502;BME280;25393;46.108;3.390;2022-10-16T04:51:46;97686.25;;;17.95;70.60
36502;BME280;25393;46.108;3.390;2022-10-16T04:54:13;97676.22;;;17.90;69.43
36502;BME280;25393;46.108;3.390;2022-10-16T04:56:40;97696.97;;;17.95;70.57
36502;BME280;25393;46.108;3.390;2022-10-16T04:59:14;97696.97;;;17.95;70.27
36502;BME280;25393;46.108;3.390;2022-10-16T05:01:41;97697.88;;;18.07;69.98
36502;BME280;25393;46.108;3.390;2022-10-16T05:04:08;97695.69;;;18.16;69.37
36502;BME280;25393;46.108;3.390;2022-10-16T05:06:35;97698.78;;;18.01;69.87
36502;BME280;25393;46.108;3.390;2022-10-16T05:09:02;97699.66;;;17.95;69.71
36502;BME280;25393;46.108;3.390;2022-10-16T05:11:29;97685.00;;;17.79;70.34
36502;BME280;25393;46.108;3.390;2022-10-16T05:13:56;97691.00;;;17.75;71.01
36502;BME280;25393;46.108;3.390;2022-10-16T05:16:23;97714.38;;;17.68;72.13
36502;BME280;25393;46.108;3.390;2022-10-16T05:18:51;97682.78;;;17.52;72.27
36502;BME280;25393;46.108;3.390;2022-10-16T05:21:29;97712.59;;;17.62;72.83
36502;BME280;25393;46.108;3.390;2022-10-16T05:23:56;97721.88;;;17.59;72.69
36502;BME280;25393;46.108;3.390;2022-10-16T05:26:23;97722.66;;;17.41;74.37
36502;BME280;25393;46.108;3.390;2022-10-16T05:28:50;97708.97;;;17.25;74.67
36502;BME280;25393;46.108;3.390;2022-10-16T05:31:17;97724.94;;;17.38;74.01
36502;BME280;25393;46.108;3.390;2022-10-16T05:33:44;97727.25;;;17.53;73.32
36502;BME280;25393;46.108;3.390;2022-10-16T05:36:10;97720.56;;;17.43;73.30
36502;BME280;25393;46.108;3.390;2022-10-16T05:38:38;97724.00;;;17.51;73.07
36502;BME280;25393;46.108;3.390;2022-10-16T05:41:05;97708.91;;;17.31;73.77
36502;BME280;25393;46.108;3.390;2022-10-16T05:43:32;97726.47;;;17.52;73.38
36502;BME280;25393;46.108;3.390;2022-10-16T05:46:03;97724.34;;;17.61;72.59
36502;BME280;25393;46.108;3.390;2022-10-16T05:48:31;97724.50;;;17.41;73.68
36502;BME280;25393;46.108;3.390;2022-10-16T05:50:59;97726.38;;;17.65;72.92
36502;BME280;25393;46.108;3.390;2022-10-16T05:53:31;97724.50;;;17.66;72.76
36502;BME280;25393;46.108;3.390;2022-10-16T05:55:58;97727.72;;;17.74;72.42
36502;BME280;25393;46.108;3.390;2022-10-16T05:58:29;97729.50;;;17.62;72.82
36502;BME280;25393;46.108;3.390;2022-10-16T06:01:01;97721.97;;;17.71;72.33
36502;BME280;25393;46.108;3.390;2022-10-16T06:03:28;97712.75;;;17.85;71.88
36502;BME280;25393;46.108;3.390;2022-10-16T06:05:55;97695.47;;;17.81;71.63
36502;BME280;25393;46.108;3.390;2022-10-16T06:08:22;97705.16;;;17.82;72.08
36502;BME280;25393;46.108;3.390;2022-10-16T06:11:00;97718.28;;;17.90;72.21
36502;BME280;25393;46.108;3.390;2022-10-16T06:13:27;97708.88;;;17.81;72.99
36502;BME280;25393;46.108;3.390;2022-10-16T06:15:57;97719.47;;;17.76;73.65
36502;BME280;25393;46.108;3.390;2022-10-16T06:18:25;97718.25;;;17.72;74.49
36502;BME280;25393;46.108;3.390;2022-10-16T06:20:53;97714.31;;;17.74;74.23
36502;BME280;25393;46.108;3.390;2022-10-16T06:23:23;97714.06;;;17.58;75.99
36502;BME280;25393;46.108;3.390;2022-10-16T06:25:50;97708.72;;;17.58;76.31
36502;BME280;25393;46.108;3.390;2022-10-16T06:28:17;97716.69;;;17.64;76.00
36502;BME280;25393;46.108;3.390;2022-10-16T06:30:44;97721.22;;;17.64;76.43
36502;BME280;25393;46.108;3.390;2022-10-16T06:33:11;97736.91;;;17.60;77.98
36502;BME280;25393;46.108;3.390;2022-10-16T06:35:37;97732.69;;;17.46;78.17
36502;BME280;25393;46.108;3.390;2022-10-16T06:38:04;97721.31;;;17.51;78.18
36502;BME280;25393;46.108;3.390;2022-10-16T06:40:31;97743.34;;;17.77;78.43
36502;BME280;25393;46.108;3.390;2022-10-16T06:42:57;97752.59;;;17.81;77.59
36502;BME280;25393;46.108;3.390;2022-10-16T06:45:24;97739.09;;;17.70;78.66
36502;BME280;25393;46.108;3.390;2022-10-16T06:47:50;97721.31;;;17.75;78.15
36502;BME280;25393;46.108;3.390;2022-10-16T06:50:17;97750.47;;;18.08;77.50
36502;BME280;25393;46.108;3.390;2022-10-16T06:52:44;97727.53;;;17.94;77.80
36502;BME280;25393;46.108;3.390;2022-10-16T06:55:10;97755.38;;;18.11;77.78
36502;BME280;25393;46.108;3.390;2022-10-16T06:57:37;97741.28;;;17.98;78.32
36502;BME280;25393;46.108;3.390;2022-10-16T07:00:04;97742.53;;;17.95;78.99
36502;BME280;25393;46.108;3.390;2022-10-16T07:02:31;97761.41;;;18.07;79.15
36502;BME280;25393;46.108;3.390;2022-10-16T07:04:58;97731.44;;;17.91;79.21
36502;BME280;25393;46.108;3.390;2022-10-16T07:07:25;97764.53;;;18.04;79.79
36502;BME280;25393;46.108;3.390;2022-10-16T07:09:53;97772.50;;;18.10;79.73
36502;BME280;25393;46.108;3.390;2022-10-16T07:12:19;97741.44;;;18.03;79.96
36502;BME280;25393;46.108;3.390;2022-10-16T07:14:46;97759.63;;;18.19;79.85
36502;BME280;25393;46.108;3.390;2022-10-16T07:17:15;97736.72;;;18.34;78.55
36502;BME280;25393;46.108;3.390;2022-10-16T07:19:41;97746.03;;;18.50;78.28
36502;BME280;25393;46.108;3.390;2022-10-16T07:22:08;97775.78;;;18.67;78.82
36502;BME280;25393;46.108;3.390;2022-10-16T07:24:35;97775.03;;;18.78;78.05
36502;BME280;25393;46.108;3.390;2022-10-16T07:27:01;97788.91;;;18.75;78.15
36502;BME280;25393;46.108;3.390;2022-10-16T07:29:28;97786.59;;;18.78;78.20
36502;BME280;25393;46.108;3.390;2022-10-16T07:31:54;97782.94;;;18.73;79.00
36502;BME280;25393;46.108;3.390;2022-10-16T07:34:21;97753.00;;;18.58;78.50
36502;BME280;25393;46.108;3.390;2022-10-16T07:36:49;97789.03;;;18.80;79.10
36502;BME280;25393;46.108;3.390;2022-10-16T07:39:16;97772.47;;;18.83;77.81
36502;BME280;25393;46.108;3.390;2022-10-16T07:41:43;97785.94;;;18.94;77.86
36502;BME280;25393;46.108;3.390;2022-10-16T07:44:10;97802.47;;;19.10;77.68
36502;BME280;25393;46.108;3.390;2022-10-16T07:46:37;97796.88;;;19.41;77.16
36502;BME280;25393;46.108;3.390;2022-10-16T07:49:03;97770.72;;;19.71;75.16
36502;BME280;25393;46.108;3.390;2022-10-16T07:51:30;97788.38;;;20.02;73.60
36502;BME280;25393;46.108;3.390;2022-10-16T07:53:57;97790.00;;;20.03;73.16
36502;BME280;25393;46.108;3.390;2022-10-16T07:56:24;97788.97;;;20.04;72.55
36502;BME280;25393;46.108;3.390;2022-10-16T07:58:51;97801.59;;;20.04;74.70
36502;BME280;25393;46.108;3.390;2022-10-16T08:01:18;97806.06;;;19.98;73.81
36502;BME280;25393;46.108;3.390;2022-10-16T08:03:48;97794.47;;;19.86;74.68
36502;BME280;25393;46.108;3.390;2022-10-16T08:06:15;97792.72;;;19.80;74.88
36502;BME280;25393;46.108;3.390;2022-10-16T08:08:47;97790.25;;;19.90;75.38
36502;BME280;25393;46.108;3.390;2022-10-16T08:11:14;97806.50;;;19.95;76.06
36502;BME280;25393;46.108;3.390;2022-10-16T08:13:41;97820.75;;;19.95;75.86
36502;BME280;25393;46.108;3.390;2022-10-16T08:16:08;97817.00;;;20.20;74.99
36502;BME280;25393;46.108;3.390;2022-10-16T08:18:37;97813.53;;;20.19;75.15
36502;BME280;25393;46.108;3.390;2022-10-16T08:21:04;97826.84;;;20.37;74.35
36502;BME280;25393;46.108;3.390;2022-10-16T08:23:32;97824.41;;;20.48;74.51
36502;BME280;25393;46.108;3.390;2022-10-16T08:26:07;97814.91;;;20.45;72.99
36502;BME280;25393;46.108;3.390;2022-10-16T08:28:34;97815.59;;;20.52;73.70
36502;BME280;25393;46.108;3.390;2022-10-16T08:31:13;97815.59;;;20.64;73.04
36502;BME280;25393;46.108;3.390;2022-10-16T08:33:42;97795.56;;;20.71;73.02
36502;BME280;25393;46.108;3.390;2022-10-16T08:36:10;97813.94;;;21.03;72.02
36502;BME280;25393;46.108;3.390;2022-10-16T08:38:37;97809.09;;;21.16;70.24
36502;BME280;25393;46.108;3.390;2022-10-16T08:44:00;97813.75;;;22.54;65.73
36502;BME280;25393;46.108;3.390;2022-10-16T08:48:59;97821.81;;;23.14;63.74
36502;BME280;25393;46.108;3.390;2022-10-16T08:53:57;97817.66;;;23.33;61.78
36502;BME280;25393;46.108;3.390;2022-10-16T08:56:25;97824.72;;;23.34;61.51
36502;BME280;25393;46.108;3.390;2022-10-16T08:58:54;97805.41;;;22.99;62.16
36502;BME280;25393;46.108;3.390;2022-10-16T09:01:39;97822.78;;;23.08;61.09
36502;BME280;25393;46.108;3.390;2022-10-16T09:07:10;97825.47;;;23.30;60.92
36502;BME280;25393;46.108;3.390;2022-10-16T09:10:03;97828.47;;;23.33;61.32
36502;BME280;25393;46.108;3.390;2022-10-16T09:12:54;97836.03;;;23.58;60.95
36502;BME280;25393;46.108;3.390;2022-10-16T09:15:32;97838.72;;;23.85;59.35
36502;BME280;25393;46.108;3.390;2022-10-16T09:18:04;97834.81;;;24.40;59.41
36502;BME280;25393;46.108;3.390;2022-10-16T09:20:39;97810.53;;;24.60;57.30
36502;BME280;25393;46.108;3.390;2022-10-16T09:23:32;97833.38;;;24.27;56.71
36502;BME280;25393;46.108;3.390;2022-10-16T09:26:01;97835.72;;;23.81;59.32
36502;BME280;25393;46.108;3.390;2022-10-16T09:28:29;97833.03;;;23.86;59.08
36502;BME280;25393;46.108;3.390;2022-10-16T09:30:56;97821.72;;;24.78;57.39
36502;BME280;25393;46.108;3.390;2022-10-16T09:33:27;97826.59;;;25.59;55.00
36502;BME280;25393;46.108;3.390;2022-10-16T09:35:56;97832.88;;;26.25;52.96
36502;BME280;25393;46.108;3.390;2022-10-16T09:38:30;97815.88;;;26.78;50.22
36502;BME280;25393;46.108;3.390;2022-10-16T09:41:00;97830.53;;;26.98;50.28
36502;BME280;25393;46.108;3.390;2022-10-16T09:46:26;97813.00;;;26.40;52.70
36502;BME280;25393;46.108;3.390;2022-10-16T09:48:57;97830.03;;;26.80;51.77
36502;BME280;25393;46.108;3.390;2022-10-16T09:51:30;97824.16;;;27.17;50.14
36502;BME280;25393;46.108;3.390;2022-10-16T09:54:22;97825.94;;;27.47;48.57
36502;BME280;25393;46.108;3.390;2022-10-16T09:56:48;97837.47;;;27.68;47.96
36502;BME280;25393;46.108;3.390;2022-10-16T09:59:20;97817.94;;;27.61;48.44
36502;BME280;25393;46.108;3.390;2022-10-16T10:01:52;97829.66;;;27.56;47.99
36502;BME280;25393;46.108;3.390;2022-10-16T10:04:21;97824.75;;;27.58;48.82
36502;BME280;25393;46.108;3.390;2022-10-16T10:06:53;97815.38;;;27.74;48.65
36502;BME280;25393;46.108;3.390;2022-10-16T10:09:25;97814.75;;;28.16;47.91
36502;BME280;25393;46.108;3.390;2022-10-16T10:11:56;97819.16;;;28.65;46.43
36502;BME280;25393;46.108;3.390;2022-10-16T10:14:43;97819.47;;;28.87;45.89
36502;BME280;25393;46.108;3.390;2022-10-16T10:17:23;97811.69;;;28.75;46.30
36502;BME280;25393;46.108;3.390;2022-10-16T10:22:45;97804.16;;;29.10;45.64
36502;BME280;25393;46.108;3.390;2022-10-16T10:38:41;97808.28;;;28.89;44.09
36502;BME280;25393;46.108;3.390;2022-10-16T10:55:37;97798.16;;;28.18;44.84
36502;BME280;25393;46.108;3.390;2022-10-16T10:58:19;97798.66;;;28.20;44.42
36502;BME280;25393;46.108;3.390;2022-10-16T11:01:00;97777.97;;;28.66;44.57
36502;BME280;25393;46.108;3.390;2022-10-16T11:06:40;97784.22;;;29.52;42.05
36502;BME280;25393;46.108;3.390;2022-10-16T11:09:25;97782.13;;;29.25;41.86
36502;BME280;25393;46.108;3.390;2022-10-16T11:12:08;97773.66;;;29.45;42.63
36502;BME280;25393;46.108;3.390;2022-10-16T11:17:16;97783.59;;;29.92;41.86
36502;BME280;25393;46.108;3.390;2022-10-16T11:22:19;97780.00;;;30.10;40.61
36502;BME280;25393;46.108;3.390;2022-10-16T11:24:53;97785.41;;;30.29;41.13
36502;BME280;25393;46.108;3.390;2022-10-16T11:27:44;97777.13;;;30.48;39.40
36502;BME280;25393;46.108;3.390;2022-10-16T11:30:22;97776.13;;;30.57;40.35
36502;BME280;25393;46.108;3.390;2022-10-16T11:38:46;97783.84;;;30.37;39.00
36502;BME280;25393;46.108;3.390;2022-10-16T11:41:33;97776.34;;;30.61;39.51
36502;BME280;25393;46.108;3.390;2022-10-16T11:47:02;97782.59;;;30.75;39.53
36502;BME280;25393;46.108;3.390;2022-10-16T11:50:02;97773.81;;;31.28;38.92
36502;BME280;25393;46.108;3.390;2022-10-16T11:52:43;97782.47;;;31.07;38.68
36502;BME280;25393;46.108;3.390;2022-10-16T11:55:21;97753.59;;;31.01;37.85
36502;BME280;25393;46.108;3.390;2022-10-16T11:57:54;97769.72;;;31.39;37.62
36502;BME280;25393;46.108;3.390;2022-10-16T12:00:30;97759.84;;;31.15;37.24
36502;BME280;25393;46.108;3.390;2022-10-16T12:03:38;97757.84;;;31.07;37.39
36502;BME280;25393;46.108;3.390;2022-10-16T12:08:47;97747.13;;;31.69;36.19
36502;BME280;25393;46.108;3.390;2022-10-16T12:11:33;97738.88;;;31.47;36.96
36502;BME280;25393;46.108;3.390;2022-10-16T12:14:59;97749.53;;;31.70;38.43
36502;BME280;25393;46.108;3.390;2022-10-16T12:19:22;97745.72;;;30.72;37.49
36502;BME280;25393;46.108;3.390;2022-10-16T12:21:51;97739.41;;;30.17;37.83
36502;BME280;25393;46.108;3.390;2022-10-16T12:24:31;97717.56;;;30.31;37.71
36502;BME280;25393;46.108;3.390;2022-10-16T12:26:59;97717.09;;;30.43;37.92
36502;BME280;25393;46.108;3.390;2022-10-16T12:29:41;97731.72;;;31.01;37.94
36502;BME280;25393;46.108;3.390;2022-10-16T12:32:32;97717.84;;;30.98;38.28
36502;BME280;25393;46.108;3.390;2022-10-16T12:35:22;97728.28;;;31.32;37.55
36502;BME280;25393;46.108;3.390;2022-10-16T12:37:50;97729.44;;;31.53;36.16
36502;BME280;25393;46.108;3.390;2022-10-16T12:40:30;97730.25;;;31.53;37.67
36502;BME280;25393;46.108;3.390;2022-10-16T12:42:58;97732.44;;;31.29;36.51
36502;BME280;25393;46.108;3.390;2022-10-16T12:45:27;97721.81;;;31.50;36.51
36502;BME280;25393;46.108;3.390;2022-10-16T12:47:54;97732.22;;;30.90;36.96
36502;BME280;25393;46.108;3.390;2022-10-16T12:50:32;97723.72;;;30.91;37.47
36502;BME280;25393;46.108;3.390;2022-10-16T12:53:00;97728.72;;;30.62;37.52
36502;BME280;25393;46.108;3.390;2022-10-16T12:55:35;97726.50;;;30.64;38.32
36502;BME280;25393;46.108;3.390;2022-10-16T12:58:28;97742.19;;;30.99;37.86
36502;BME280;25393;46.108;3.390;2022-10-16T13:01:23;97737.50;;;31.36;37.74
36502;BME280;25393;46.108;3.390;2022-10-16T13:06:47;97745.03;;;30.67;37.32
36502;BME280;25393;46.108;3.390;2022-10-16T13:14:35;97744.06;;;30.03;38.71
36502;BME280;25393;46.108;3.390;2022-10-16T13:25:17;97733.00;;;30.08;40.24
36502;BME280;25393;46.108;3.390;2022-10-16T13:30:34;97731.72;;;30.19;39.38
36502;BME280;25393;46.108;3.390;2022-10-16T13:35:57;97732.81;;;29.59;41.21
36502;BME280;25393;46.108;3.390;2022-10-16T13:38:27;97738.13;;;29.32;41.04
36502;BME280;25393;46.108;3.390;2022-10-16T13:41:16;97719.94;;;29.27;41.74
36502;BME280;25393;46.108;3.390;2022-10-16T13:43:49;97724.97;;;29.52;41.89
36502;BME280;25393;46.108;3.390;2022-10-16T13:46:20;97721.97;;;29.67;42.42
36502;BME280;25393;46.108;3.390;2022-10-16T13:49:02;97725.03;;;29.66;41.46
36502;BME280;25393;46.108;3.390;2022-10-16T13:51:30;97723.00;;;30.04;42.26
36502;BME280;25393;46.108;3.390;2022-10-16T13:53:57;97722.19;;;29.90;41.67
36502;BME280;25393;46.108;3.390;2022-10-16T13:56:27;97739.00;;;29.78;41.58
36502;BME280;25393;46.108;3.390;2022-10-16T14:04:07;97731.84;;;28.94;43.97
36502;BME280;25393;46.108;3.390;2022-10-16T14:06:36;97733.16;;;28.54;44.72
36502;BME280;25393;46.108;3.390;2022-10-16T14:09:27;97717.47;;;28.46;45.69
36502;BME280;25393;46.108;3.390;2022-10-16T14:12:00;97727.44;;;28.32;45.09
36502;BME280;25393;46.108;3.390;2022-10-16T14:14:35;97727.94;;;28.34;44.59
36502;BME280;25393;46.108;3.390;2022-10-16T14:17:02;97734.44;;;28.14;45.48
36502;BME280;25393;46.108;3.390;2022-10-16T14:19:30;97735.78;;;28.16;45.64
36502;BME280;25393;46.108;3.390;2022-10-16T14:21:58;97749.97;;;28.13;45.05
36502;BME280;25393;46.108;3.390;2022-10-16T14:24:33;97721.22;;;27.97;45.56
36502;BME280;25393;46.108;3.390;2022-10-16T14:27:01;97753.34;;;28.00;45.52
36502;BME280;25393;46.108;3.390;2022-10-16T14:29:29;97743.91;;;27.88;45.11
36502;BME280;25393;46.108;3.390;2022-10-16T14:32:24;97751.78;;;27.65;45.37
36502;BME280;25393;46.108;3.390;2022-10-16T14:35:27;97755.34;;;27.90;45.71
36502;BME280;25393;46.108;3.390;2022-10-16T14:37:58;97759.22;;;28.12;45.25
36502;BME280;25393;46.108;3.390;2022-10-16T14:40:29;97753.59;;;27.75;44.67
36502;BME280;25393;46.108;3.390;2022-10-16T14:42:57;97760.44;;;27.28;46.23
36502;BME280;25393;46.108;3.390;2022-10-16T14:45:27;97769.84;;;27.02;46.29
36502;BME280;25393;46.108;3.390;2022-10-16T14:47:57;97770.19;;;26.91;47.26
36502;BME280;25393;46.108;3.390;2022-10-16T14:50:24;97764.00;;;26.70;47.72
36502;BME280;25393;46.108;3.390;2022-10-16T14:52:51;97762.16;;;26.50;48.71
36502;BME280;25393;46.108;3.390;2022-10-16T14:55:18;97784.25;;;26.33;48.92
36502;BME280;25393;46.108;3.390;2022-10-16T14:57:45;97759.25;;;26.16;48.74
36502;BME280;25393;46.108;3.390;2022-10-16T15:00:22;97781.25;;;26.35;48.98
36502;BME280;25393;46.108;3.390;2022-10-16T15:02:50;97780.44;;;26.35;48.55
36502;BME280;25393;46.108;3.390;2022-10-16T15:05:22;97779.31;;;26.36;48.70
36502;BME280;25393;46.108;3.390;2022-10-16T15:07:50;97782.56;;;26.43;48.98
36502;BME280;25393;46.108;3.390;2022-10-16T15:10:17;97777.19;;;26.27;49.01